Terminal Aerodrome Forecast
Issued by NWS Shreveport, LA

Home | Current Version | Previous Version | Text Only | Print | Product List | Glossary On
Versions: 1 2 3 4 5 6 7 8 9 10 11 12 13
578
FTUS44 KSHV 050539
TAFTXK
TAF
KTXK 050539Z 0506/0606 34005KT P6SM SKC
     FM051600 36006KT P6SM SKC
     FM051800 33008G15KT P6SM SKC
     FM052200 34008KT P6SM SKC
     FM060000 33004KT P6SM SKC=

USA.gov is the U.S. government's official web portal to all federal, state and local government web resources and services.